Time;durP1;ratioP1;P1;durP2;ratioP2;P2;SDS_P1;SDS_P2;PMS_P1;PMS_P2;Temp;Humidity;BMP_temperature;BMP_pressure;BME280_temperature;BME280_humidity;BME280_pressure;Samples;Min_cycle;Max_cycle;Signal;HPM_P1;HPM_P2
2022/04/26 03:37:45;;;;;;;16.77;9.93;;;5.90;99.90;;;;;;2215137;64;20228;-67
2022/04/26 03:40:22;;;;;;;14.18;10.20;;;5.90;99.90;;;;;;2217396;64;20244;-68
2022/04/26 03:43:02;;;;;;;15.63;10.68;;;5.90;99.90;;;;;;2207738;64;20169;-68
2022/04/26 03:45:40;;;;;;;17.73;9.77;;;5.90;99.90;;;;;;2209616;64;20168;-67
2022/04/26 03:48:19;;;;;;;15.25;10.35;;;5.80;99.90;;;;;;2214605;64;20590;-68
2022/04/26 03:50:56;;;;;;;17.65;10.20;;;5.80;99.90;;;;;;2214902;64;20638;-68
2022/04/26 03:53:34;;;;;;;13.20;9.23;;;5.80;99.90;;;;;;2214458;64;20234;-69
2022/04/26 03:56:15;;;;;;;19.63;9.13;;;5.80;99.90;;;;;;2214837;64;20190;-68
2022/04/26 03:58:54;;;;;;;18.75;9.15;;;5.70;99.90;;;;;;2214654;64;20240;-68
2022/04/26 04:01:32;;;;;;;13.68;8.48;;;5.70;99.90;;;;;;2214194;64;20180;-68
2022/04/26 04:04:09;;;;;;;15.27;9.05;;;5.70;99.90;;;;;;2214219;64;20164;-68
2022/04/26 04:06:46;;;;;;;18.13;8.68;;;5.60;99.90;;;;;;2215459;64;20175;-68
2022/04/26 04:09:27;;;;;;;17.77;8.50;;;5.60;99.90;;;;;;2214191;64;20541;-68
2022/04/26 04:12:09;;;;;;;11.15;8.48;;;5.60;99.90;;;;;;2214685;64;20194;-67
2022/04/26 04:14:46;;;;;;;14.63;8.88;;;5.60;99.90;;;;;;2214714;64;20190;-68
2022/04/26 04:17:23;;;;;;;17.05;8.45;;;5.60;99.90;;;;;;2214063;64;20788;-69
2022/04/26 04:20:00;;;;;;;15.50;8.07;;;5.60;99.90;;;;;;2214794;64;20652;-68
2022/04/26 04:22:40;;;;;;;11.45;6.97;;;5.60;99.90;;;;;;2214298;64;20210;-68
2022/04/26 04:25:17;;;;;;;15.02;7.40;;;5.60;99.90;;;;;;2215013;64;20223;-68
2022/04/26 04:27:53;;;;;;;16.30;7.75;;;5.70;99.90;;;;;;2214366;64;20160;-69
2022/04/26 04:30:31;;;;;;;15.13;7.55;;;5.80;99.90;;;;;;2207181;64;20568;-68
2022/04/26 04:33:12;;;;;;;16.75;8.15;;;5.70;99.90;;;;;;2214778;64;20284;-68
2022/04/26 04:35:52;;;;;;;16.27;7.32;;;5.60;99.90;;;;;;2214896;64;20238;-68
2022/04/26 04:38:32;;;;;;;11.88;6.90;;;5.70;99.90;;;;;;2214822;64;20176;-69
2022/04/26 04:41:10;;;;;;;13.27;6.88;;;5.70;99.90;;;;;;2217067;64;20657;-68
2022/04/26 04:43:51;;;;;;;18.42;7.22;;;5.70;99.90;;;;;;2215869;64;20306;-67
2022/04/26 04:46:31;;;;;;;12.55;7.65;;;5.70;99.90;;;;;;2207336;65;20651;-68
2022/04/26 04:49:08;;;;;;;15.40;7.68;;;5.60;99.90;;;;;;2213674;64;20194;-69
2022/04/26 04:51:48;;;;;;;13.70;7.95;;;5.60;99.90;;;;;;2214854;64;20168;-67
2022/04/26 04:54:26;;;;;;;12.05;7.30;;;5.70;99.90;;;;;;2214704;64;20237;-69
2022/04/26 04:57:06;;;;;;;10.43;7.28;;;5.70;99.90;;;;;;2214735;64;20188;-68
2022/04/26 04:59:44;;;;;;;12.13;7.25;;;5.70;99.90;;;;;;2214678;64;20717;-68
2022/04/26 05:02:23;;;;;;;11.63;7.28;;;5.70;99.90;;;;;;2213853;64;20168;-68
2022/04/26 05:05:00;;;;;;;9.65;6.28;;;5.70;99.90;;;;;;2214762;64;20209;-68
2022/04/26 05:07:37;;;;;;;9.90;6.57;;;5.80;99.90;;;;;;2214823;64;20650;-69
2022/04/26 05:10:18;;;;;;;14.95;6.68;;;6.00;99.90;;;;;;2214697;64;20284;-68
2022/04/26 05:13:01;;;;;;;13.57;6.70;;;5.80;99.90;;;;;;2214968;64;20213;-68
2022/04/26 05:15:38;;;;;;;14.55;6.72;;;5.80;99.90;;;;;;2215818;64;20193;-68
2022/04/26 05:18:17;;;;;;;7.30;6.05;;;6.10;99.90;;;;;;2211328;64;20693;-68
2022/04/26 05:20:55;;;;;;;12.32;6.40;;;5.90;99.90;;;;;;2211638;64;20228;-67
2022/04/26 05:26:32;;;;;;;10.07;7.20;;;6.00;99.90;;;;;;2216156;64;20313;-67
2022/04/26 05:29:13;;;;;;;11.70;7.22;;;6.00;99.90;;;;;;2216301;64;20198;-69
2022/04/26 05:31:56;;;;;;;12.93;6.63;;;6.10;99.90;;;;;;2216231;64;20194;-70
2022/04/26 05:34:32;;;;;;;10.13;6.22;;;6.10;99.90;;;;;;2216866;64;20168;-66
2022/04/26 05:37:09;;;;;;;12.63;6.80;;;6.10;99.90;;;;;;2215337;64;20191;-68
2022/04/26 05:39:47;;;;;;;9.23;7.07;;;6.20;99.90;;;;;;2214547;64;21009;-68
2022/04/26 05:42:26;;;;;;;9.27;6.72;;;6.20;99.90;;;;;;2215288;64;20359;-69
2022/04/26 05:45:04;;;;;;;10.18;6.60;;;6.30;99.90;;;;;;2215349;64;20193;-68
2022/04/26 05:48:02;;;;;;;12.48;7.32;;;6.30;99.90;;;;;;2211494;64;20277;-69
2022/04/26 05:50:41;;;;;;;13.05;7.32;;;6.40;99.90;;;;;;2211044;64;20255;-69
2022/04/26 05:53:17;;;;;;;11.43;6.40;;;6.50;99.90;;;;;;2215337;64;20174;-68
2022/04/26 05:55:54;;;;;;;13.07;7.07;;;6.50;99.90;;;;;;2215714;64;20168;-69
2022/04/26 05:58:32;;;;;;;14.23;7.13;;;6.60;99.90;;;;;;2222187;64;20213;-69
2022/04/26 06:01:11;;;;;;;11.13;6.80;;;6.70;99.90;;;;;;2218858;64;20298;-69
2022/04/26 06:03:48;;;;;;;12.55;6.93;;;6.70;99.90;;;;;;2213375;64;20172;-68
2022/04/26 06:06:25;;;;;;;9.00;5.78;;;6.80;99.90;;;;;;2215494;64;20288;-68
2022/04/26 06:09:03;;;;;;;11.27;5.43;;;6.80;99.90;;;;;;2214435;64;20209;-69
2022/04/26 06:11:40;;;;;;;7.03;5.20;;;6.90;99.90;;;;;;2214809;64;20336;-69
2022/04/26 06:14:18;;;;;;;8.18;5.18;;;7.00;99.90;;;;;;2214377;64;20679;-69
2022/04/26 06:16:59;;;;;;;11.00;5.25;;;7.10;99.90;;;;;;2214510;64;20199;-69
2022/04/26 06:19:39;;;;;;;6.07;4.38;;;7.10;99.90;;;;;;2214858;64;20305;-68
2022/04/26 06:22:19;;;;;;;9.88;4.85;;;7.20;99.90;;;;;;2214923;64;20179;-69
2022/04/26 06:24:55;;;;;;;10.10;4.47;;;7.30;99.90;;;;;;2214541;64;20244;-68
2022/04/26 06:27:32;;;;;;;5.97;3.47;;;7.60;99.90;;;;;;2215211;64;20176;-70
2022/04/26 06:30:11;;;;;;;13.52;4.53;;;7.80;99.90;;;;;;2215320;64;20248;-69
2022/04/26 06:32:49;;;;;;;6.60;3.60;;;8.10;99.90;;;;;;2215515;64;20673;-69
2022/04/26 06:35:29;;;;;;;7.45;3.65;;;8.30;99.90;;;;;;2215533;64;20642;-68
2022/04/26 06:38:07;;;;;;;9.30;4.10;;;8.60;99.90;;;;;;2215547;64;20189;-68
2022/04/26 06:40:47;;;;;;;8.77;5.07;;;8.80;99.90;;;;;;2215450;64;20527;-68
2022/04/26 06:43:29;;;;;;;6.57;2.92;;;9.00;99.90;;;;;;2215423;64;20221;-69
2022/04/26 06:46:06;;;;;;;11.02;3.97;;;9.20;99.90;;;;;;2215526;64;20183;-68
2022/04/26 06:48:48;;;;;;;7.53;3.55;;;9.30;99.90;;;;;;2213838;64;20187;-69
2022/04/26 06:51:30;;;;;;;7.53;3.30;;;9.30;99.90;;;;;;2210867;64;20177;-68
2022/04/26 06:54:27;;;;;;;7.10;3.25;;;9.40;99.90;;;;;;2209438;64;20263;-70
2022/04/26 06:57:04;;;;;;;7.80;2.80;;;9.50;99.90;;;;;;2215057;64;20401;-69
2022/04/26 06:59:41;;;;;;;6.18;3.72;;;9.70;99.90;;;;;;2215075;64;20268;-69
2022/04/26 07:02:20;;;;;;;7.25;3.45;;;9.80;99.90;;;;;;2214809;64;20284;-68
2022/04/26 07:05:01;;;;;;;6.35;3.40;;;9.90;99.90;;;;;;2214702;64;20231;-69
2022/04/26 07:07:42;;;;;;;6.47;3.13;;;9.90;99.90;;;;;;2215324;64;20254;-68
2022/04/26 07:10:24;;;;;;;8.82;3.45;;;9.90;99.90;;;;;;2214175;64;20659;-69
2022/04/26 07:13:02;;;;;;;6.20;2.53;;;10.00;99.90;;;;;;2214493;64;20209;-71
2022/04/26 07:15:42;;;;;;;4.57;2.92;;;10.00;99.90;;;;;;2213370;64;20208;-71
2022/04/26 07:18:20;;;;;;;10.35;4.00;;;10.00;99.90;;;;;;2214281;64;20297;-68
2022/04/26 07:21:00;;;;;;;6.05;3.15;;;10.00;99.90;;;;;;2214819;64;20176;-68
2022/04/26 07:23:36;;;;;;;6.18;2.70;;;10.10;99.90;;;;;;2215017;64;20210;-68
2022/04/26 07:26:15;;;;;;;7.45;3.10;;;10.30;99.90;;;;;;2214723;64;20617;-71
2022/04/26 07:28:55;;;;;;;5.75;2.85;;;10.20;99.90;;;;;;2215086;64;20223;-71
2022/04/26 07:31:37;;;;;;;8.45;3.90;;;10.10;99.90;;;;;;2214498;64;20257;-70
2022/04/26 07:34:23;;;;;;;7.65;4.18;;;10.10;99.90;;;;;;2213857;64;20172;-69
2022/04/26 07:37:02;;;;;;;8.25;3.85;;;10.20;99.90;;;;;;2206951;64;20282;-69
2022/04/26 07:39:39;;;;;;;7.03;3.80;;;10.30;99.90;;;;;;2213550;64;20339;-68
2022/04/26 07:42:16;;;;;;;8.65;3.50;;;10.40;99.90;;;;;;2212170;64;20742;-68
2022/04/26 07:44:54;;;;;;;4.30;3.42;;;10.50;99.90;;;;;;2214676;64;20194;-70
2022/04/26 07:47:39;;;;;;;;;;;10.50;99.90;;;;;;2214972;64;20318;-71
2022/04/26 07:50:20;;;;;;;7.82;3.35;;;10.70;99.90;;;;;;2214705;64;20064;-73
2022/04/26 07:53:01;;;;;;;6.45;3.95;;;10.80;99.90;;;;;;2214886;64;20180;-72
2022/04/26 07:55:39;;;;;;;4.93;3.45;;;11.10;99.90;;;;;;2214379;64;20160;-72
2022/04/26 07:58:20;;;;;;;3.88;3.00;;;10.90;99.90;;;;;;2212643;64;20153;-67
2022/04/26 08:01:02;;;;;;;6.63;3.20;;;10.70;99.90;;;;;;2212956;64;20172;-71
2022/04/26 08:03:41;;;;;;;6.68;3.75;;;10.40;99.90;;;;;;2212822;64;20330;-71
2022/04/26 08:06:18;;;;;;;6.20;3.08;;;10.20;99.90;;;;;;2213902;64;20160;-72
2022/04/26 08:08:55;;;;;;;5.43;2.95;;;10.30;99.90;;;;;;2214763;64;20248;-72
2022/04/26 08:11:32;;;;;;;5.07;3.00;;;10.50;99.90;;;;;;2214774;64;20179;-73
2022/04/26 08:14:11;;;;;;;5.95;2.80;;;10.70;99.90;;;;;;2214183;64;20358;-71
2022/04/26 08:16:50;;;;;;;5.63;3.17;;;10.70;99.90;;;;;;2214627;64;20300;-71
2022/04/26 08:19:27;;;;;;;4.40;2.80;;;10.90;99.90;;;;;;2214621;64;20164;-72
2022/04/26 08:22:04;;;;;;;5.30;2.47;;;11.10;99.90;;;;;;2207744;64;20817;-71
2022/04/26 08:27:35;;;;;;;6.18;3.10;;;11.30;99.90;;;;;;2210017;64;20837;-72
2022/04/26 08:30:14;;;;;;;5.13;2.83;;;11.20;99.80;;;;;;2214575;64;20192;-71
2022/04/26 08:32:53;;;;;;;4.32;2.80;;;11.10;99.50;;;;;;2215044;64;20768;-72
2022/04/26 08:35:31;;;;;;;4.30;2.63;;;11.00;99.60;;;;;;2214586;64;20658;-71
2022/04/26 08:38:11;;;;;;;5.55;2.75;;;11.00;99.00;;;;;;2214486;64;20160;-72
2022/04/26 08:40:51;;;;;;;4.50;2.30;;;10.90;98.50;;;;;;2214479;64;20168;-71
2022/04/26 08:43:33;;;;;;;3.47;2.20;;;10.90;98.70;;;;;;2213775;64;20796;-71
2022/04/26 08:46:11;;;;;;;3.78;2.90;;;10.80;98.70;;;;;;2214518;64;20196;-70
2022/04/26 08:51:47;;;;;;;6.53;2.47;;;11.20;98.00;;;;;;2214329;64;20191;-71
2022/04/26 08:54:28;;;;;;;5.00;2.33;;;11.20;97.30;;;;;;2215262;64;20451;-70
2022/04/26 08:57:05;;;;;;;3.20;2.38;;;11.40;97.20;;;;;;2216655;64;20255;-72
2022/04/26 08:59:52;;;;;;;6.22;2.40;;;11.60;96.70;;;;;;2214817;64;20241;-71
2022/04/26 09:02:30;;;;;;;6.90;3.20;;;11.70;96.20;;;;;;2215194;64;20653;-72
2022/04/26 09:05:12;;;;;;;4.28;2.55;;;11.80;96.10;;;;;;2214743;64;20175;-73
2022/04/26 09:07:49;;;;;;;4.45;2.40;;;12.00;95.70;;;;;;2212107;64;20660;-73
2022/04/26 09:10:29;;;;;;;6.93;2.33;;;12.20;94.80;;;;;;2213627;64;20224;-71
2022/04/26 09:13:17;;;;;;;3.97;2.08;;;12.20;94.00;;;;;;2214949;64;20190;-71
2022/04/26 09:15:57;;;;;;;5.13;2.65;;;12.20;93.50;;;;;;2215126;64;20168;-72
2022/04/26 09:18:34;;;;;;;4.43;2.30;;;12.10;93.60;;;;;;2215033;64;20398;-72
2022/04/26 09:21:13;;;;;;;5.63;2.63;;;12.10;92.60;;;;;;2218229;64;20259;-72
2022/04/26 09:23:50;;;;;;;5.32;2.38;;;12.10;92.50;;;;;;2219981;64;20602;-71
2022/04/26 09:26:38;;;;;;;5.05;2.22;;;12.10;92.40;;;;;;2215721;64;20282;-72
2022/04/26 09:29:20;;;;;;;6.32;2.90;;;12.40;92.20;;;;;;2214606;64;20152;-71
2022/04/26 09:32:03;;;;;;;8.65;2.85;;;13.30;92.20;;;;;;2215354;64;20255;-72
2022/04/26 09:34:40;;;;;;;5.78;3.00;;;12.70;92.00;;;;;;2214040;64;20242;-70
2022/04/26 09:37:22;;;;;;;4.13;2.72;;;12.70;90.90;;;;;;2213819;64;20205;-69
2022/04/26 09:40:11;;;;;;;5.20;2.45;;;12.60;90.50;;;;;;2213959;64;20223;-69
2022/04/26 09:42:51;;;;;;;6.03;3.03;;;12.50;90.30;;;;;;2214536;64;20210;-70
2022/04/26 09:45:34;;;;;;;4.00;2.35;;;12.30;90.60;;;;;;2212231;64;20337;-69
2022/04/26 09:48:11;;;;;;;6.88;2.75;;;12.30;91.00;;;;;;2214294;64;20280;-71
2022/04/26 09:50:47;;;;;;;6.78;2.40;;;12.40;91.30;;;;;;2215484;64;20183;-69
2022/04/26 09:53:25;;;;;;;3.63;2.25;;;12.50;90.80;;;;;;2214986;64;20172;-69
2022/04/26 09:56:07;;;;;;;3.63;2.40;;;12.70;90.40;;;;;;2208813;64;20297;-70
2022/04/26 09:58:46;;;;;;;5.25;2.67;;;13.00;89.60;;;;;;2214590;64;20179;-69
2022/04/26 10:01:27;;;;;;;3.97;2.17;;;13.40;88.40;;;;;;2214455;64;20226;-71
2022/04/26 10:04:04;;;;;;;4.65;2.30;;;13.70;86.20;;;;;;2214833;64;20168;-68
2022/04/26 10:06:43;;;;;;;4.60;2.78;;;13.80;84.90;;;;;;2208395;64;20169;-71
2022/04/26 10:09:20;;;;;;;3.88;2.53;;;13.80;83.80;;;;;;2214317;64;20330;-71
2022/04/26 10:12:01;;;;;;;4.53;2.40;;;13.60;82.50;;;;;;2214622;64;20201;-71
2022/04/26 10:14:40;;;;;;;6.95;2.67;;;13.50;82.50;;;;;;2214563;64;20336;-70
2022/04/26 10:17:22;;;;;;;5.40;2.40;;;13.60;83.60;;;;;;2214868;64;20194;-70
2022/04/26 10:20:01;;;;;;;4.57;2.25;;;14.00;82.60;;;;;;2215343;64;20688;-70
2022/04/26 10:23:01;;;;;;;4.18;2.33;;;14.20;80.00;;;;;;2215372;64;20160;-70
2022/04/26 10:26:03;;;;;;;3.17;2.20;;;14.50;79.80;;;;;;2213081;64;20226;-69
2022/04/26 10:28:58;;;;;;;4.43;2.20;;;14.80;78.10;;;;;;2214762;64;20540;-72
2022/04/26 10:31:41;;;;;;;2.92;2.25;;;15.10;75.80;;;;;;2214882;64;20176;-72
2022/04/26 10:34:29;;;;;;;3.22;2.03;;;15.10;75.10;;;;;;2214864;64;20266;-72
2022/04/26 10:37:09;;;;;;;4.20;2.22;;;15.00;74.20;;;;;;2214358;64;20692;-72
2022/04/26 10:39:51;;;;;;;6.20;2.60;;;15.00;74.10;;;;;;2214280;64;20340;-71
2022/04/26 10:42:31;;;;;;;3.63;2.15;;;15.20;73.40;;;;;;2214853;64;20190;-70
2022/04/26 10:45:10;;;;;;;5.40;2.42;;;15.20;72.80;;;;;;2214908;64;20188;-70
2022/04/26 10:47:48;;;;;;;4.35;2.20;;;15.10;72.70;;;;;;2215173;64;20590;-70
2022/04/26 10:50:36;;;;;;;5.47;2.70;;;14.90;71.70;;;;;;2214991;64;20164;-71
2022/04/26 10:53:47;;;;;;;4.05;2.85;;;15.10;72.20;;;;;;2214779;64;20757;-72
2022/04/26 10:56:24;;;;;;;6.47;2.10;;;16.00;72.90;;;;;;2213193;64;20372;-71
2022/04/26 10:59:02;;;;;;;5.97;2.50;;;16.50;70.10;;;;;;2215110;64;20198;-72
2022/04/26 11:01:44;;;;;;;3.80;2.63;;;16.30;69.70;;;;;;2213309;64;20211;-73
2022/04/26 11:04:24;;;;;;;6.25;2.45;;;16.00;69.00;;;;;;2213502;64;20195;-72
2022/04/26 11:07:17;;;;;;;3.45;2.25;;;16.20;69.00;;;;;;2212733;64;20865;-68
2022/04/26 11:09:56;;;;;;;3.72;2.65;;;17.20;68.30;;;;;;2214068;64;20252;-71
2022/04/26 11:12:37;;;;;;;6.50;2.58;;;18.10;66.40;;;;;;2213566;64;20361;-68
2022/04/26 11:15:19;;;;;;;3.33;3.03;;;18.70;62.70;;;;;;2213292;64;20249;-71
2022/04/26 11:17:57;;;;;;;4.50;2.40;;;18.30;61.90;;;;;;2214475;64;20327;-70
2022/04/26 11:20:37;;;;;;;3.95;2.10;;;18.20;62.30;;;;;;2214061;64;20204;-72
2022/04/26 11:29:24;;;;;;;7.30;2.83;;;18.70;59.10;;;;;;2214829;64;20659;-70
2022/04/26 11:32:01;;;;;;;3.72;2.17;;;18.50;58.50;;;;;;2214484;64;20304;-71
2022/04/26 11:34:47;;;;;;;4.97;2.70;;;19.10;58.00;;;;;;2214941;64;20188;-71
2022/04/26 11:37:26;;;;;;;4.30;2.42;;;20.20;56.50;;;;;;2207103;65;20789;-72
2022/04/26 11:40:04;;;;;;;3.67;2.10;;;20.90;55.70;;;;;;2213626;64;20329;-71
2022/04/26 11:42:41;;;;;;;4.30;2.22;;;21.20;54.80;;;;;;2212498;64;20197;-71
2022/04/26 11:45:21;;;;;;;4.40;2.00;;;22.00;53.70;;;;;;2216315;64;20628;-72
2022/04/26 11:48:00;;;;;;;4.85;2.55;;;21.80;52.90;;;;;;2210582;64;20193;-72
2022/04/26 11:50:38;;;;;;;3.45;2.13;;;21.40;51.40;;;;;;2208991;64;20289;-70
2022/04/26 11:53:35;;;;;;;4.55;2.20;;;22.10;51.40;;;;;;2213493;64;20646;-71
2022/04/26 11:56:15;;;;;;;4.20;2.40;;;23.40;50.90;;;;;;2211119;64;20203;-70
2022/04/26 11:58:52;;;;;;;3.65;2.35;;;24.10;49.30;;;;;;2210144;64;20209;-70
2022/04/26 12:01:30;;;;;;;3.63;1.90;;;23.50;48.60;;;;;;2213343;64;20321;-71
2022/04/26 12:04:07;;;;;;;4.82;2.05;;;23.80;48.30;;;;;;2213778;64;20532;-70
2022/04/26 12:06:44;;;;;;;3.92;2.10;;;24.10;47.50;;;;;;2211744;64;20336;-72
2022/04/26 12:09:24;;;;;;;2.22;1.90;;;23.90;46.40;;;;;;2211800;64;20293;-71
2022/04/26 12:12:06;;;;;;;5.43;2.25;;;23.10;46.40;;;;;;2213059;64;20257;-70
2022/04/26 12:14:47;;;;;;;3.00;1.95;;;22.50;47.50;;;;;;2213131;64;20172;-71
2022/04/26 12:17:29;;;;;;;3.40;2.10;;;23.50;47.70;;;;;;2213622;64;20231;-71
2022/04/26 12:20:11;;;;;;;4.85;2.13;;;24.10;46.70;;;;;;2213846;64;20213;-71
2022/04/26 12:22:49;;;;;;;3.20;2.22;;;23.90;46.40;;;;;;2215034;64;20769;-70
2022/04/26 12:25:29;;;;;;;4.20;2.30;;;24.20;45.40;;;;;;2213514;64;20183;-71
2022/04/26 12:28:07;;;;;;;3.60;2.55;;;23.90;45.50;;;;;;2214919;64;20331;-70
2022/04/26 12:30:45;;;;;;;3.90;1.83;;;24.50;44.70;;;;;;2213790;64;20266;-70
2022/04/26 12:33:28;;;;;;;5.32;2.00;;;25.30;44.30;;;;;;2214046;64;20437;-71
2022/04/26 12:36:07;;;;;;;3.78;1.85;;;26.30;43.60;;;;;;2214448;64;20191;-72
2022/04/26 12:38:50;;;;;;;3.35;2.03;;;27.10;42.20;;;;;;2214463;64;20248;-70
2022/04/26 12:41:27;;;;;;;4.78;2.03;;;27.00;42.20;;;;;;2217412;64;20209;-71
2022/04/26 12:44:10;;;;;;;4.88;2.13;;;27.90;41.50;;;;;;2214315;64;20291;-72
2022/04/26 12:50:27;;;;;;;5.00;2.25;;;27.20;40.30;;;;;;2215520;64;20184;-70
2022/04/26 12:53:08;;;;;;;2.55;2.15;;;27.00;40.50;;;;;;2212800;64;20285;-72
2022/04/26 12:55:47;;;;;;;5.70;1.92;;;26.80;40.40;;;;;;2214334;64;20160;-72
2022/04/26 12:58:35;;;;;;;2.92;2.13;;;27.10;40.30;;;;;;2214543;64;20301;-71
2022/04/26 13:01:11;;;;;;;;;;;28.20;38.40;;;;;;2214813;64;20172;-71
2022/04/26 13:03:49;;;;;;;5.65;2.45;;;29.20;37.70;;;;;;2213208;64;20169;-71
2022/04/26 13:06:30;;;;;;;6.53;2.42;;;29.70;37.70;;;;;;2213260;64;20181;-72
2022/04/26 13:09:11;;;;;;;4.85;2.28;;;30.40;36.00;;;;;;2213855;64;20235;-73
2022/04/26 13:11:53;;;;;;;5.28;2.40;;;30.80;36.10;;;;;;2212802;64;20289;-71
2022/04/26 13:14:35;;;;;;;4.25;2.28;;;31.50;36.00;;;;;;2214510;64;20195;-72
2022/04/26 13:17:12;;;;;;;3.95;2.20;;;32.10;35.00;;;;;;2213119;64;20590;-72
2022/04/26 13:19:50;;;;;;;5.55;2.03;;;32.20;33.40;;;;;;2213612;64;20260;-69
2022/04/26 13:22:30;;;;;;;4.80;2.50;;;32.60;33.80;;;;;;1979093;64;15071661;-75
2022/04/26 13:25:11;;;;;;;4.18;2.13;;;33.00;33.60;;;;;;2213806;64;20862;-73
2022/04/26 13:27:48;;;;;;;3.63;2.33;;;32.60;33.10;;;;;;2211016;64;20596;-73
2022/04/26 13:30:28;;;;;;;3.08;2.20;;;31.60;33.00;;;;;;2210345;64;20302;-72
2022/04/26 13:33:04;;;;;;;5.68;2.10;;;31.60;33.80;;;;;;2211521;64;20224;-70
2022/04/26 13:35:41;;;;;;;3.65;2.30;;;30.80;34.00;;;;;;2215753;64;20347;-73
2022/04/26 13:38:19;;;;;;;2.78;2.00;;;31.30;34.00;;;;;;2216147;64;20172;-71
2022/04/26 13:40:59;;;;;;;5.38;2.70;;;31.40;33.80;;;;;;2219122;64;20308;-73
2022/04/26 13:43:42;;;;;;;4.50;2.90;;;30.70;33.60;;;;;;2214687;64;20221;-72
2022/04/26 13:46:23;;;;;;;3.65;2.88;;;28.80;34.90;;;;;;2215334;64;20269;-71
2022/04/26 13:48:59;;;;;;;6.05;2.83;;;27.10;36.00;;;;;;2215394;64;20203;-71
2022/04/26 13:51:37;;;;;;;5.13;2.50;;;25.80;37.20;;;;;;2215718;64;20168;-72
2022/04/26 13:54:17;;;;;;;3.30;2.42;;;24.80;37.90;;;;;;2213407;64;20168;-71
2022/04/26 13:56:58;;;;;;;3.50;2.47;;;24.00;38.90;;;;;;2215032;64;20288;-73
2022/04/26 13:59:38;;;;;;;5.70;2.63;;;24.80;39.50;;;;;;2209262;64;20173;-72
2022/04/26 14:02:20;;;;;;;12.82;3.85;;;26.70;38.30;;;;;;2213759;64;20193;-72
2022/04/26 14:04:59;;;;;;;5.57;2.63;;;27.00;37.10;;;;;;2215493;64;20250;-74
2022/04/26 14:07:38;;;;;;;5.07;2.50;;;26.00;37.40;;;;;;2215495;64;20340;-71
2022/04/26 14:10:21;;;;;;;6.78;2.50;;;25.40;38.40;;;;;;2214845;64;20396;-73
2022/04/26 14:13:02;;;;;;;6.57;3.13;;;26.40;38.90;;;;;;2214684;64;20168;-73
2022/04/26 14:21:49;;;;;;;5.88;2.33;;;24.30;38.90;;;;;;2207948;64;20192;-70
2022/04/26 14:24:28;;;;;;;3.53;2.47;;;24.50;39.90;;;;;;2208409;64;20214;-72
2022/04/26 14:27:07;;;;;;;4.00;2.05;;;24.60;39.20;;;;;;2215294;64;20234;-72
2022/04/26 14:29:44;;;;;;;4.50;2.10;;;25.30;39.50;;;;;;2214906;64;20298;-71
2022/04/26 14:32:20;;;;;;;3.78;2.72;;;25.80;38.20;;;;;;2215399;64;20260;-71
2022/04/26 14:34:57;;;;;;;3.78;2.10;;;25.90;37.80;;;;;;2215143;64;20184;-73
2022/04/26 14:37:34;;;;;;;3.30;2.30;;;25.50;37.80;;;;;;2215248;64;20230;-71
2022/04/26 14:40:16;;;;;;;3.92;2.63;;;25.00;38.10;;;;;;2215100;64;20209;-71
2022/04/26 14:42:54;;;;;;;5.25;2.50;;;24.90;39.00;;;;;;2215146;64;20196;-71
2022/04/26 14:45:32;;;;;;;5.05;2.65;;;25.10;38.90;;;;;;2214898;64;20594;-71
2022/04/26 14:48:11;;;;;;;3.65;2.42;;;25.90;38.60;;;;;;2215171;64;20227;-72
2022/04/26 14:50:50;;;;;;;6.18;2.53;;;26.80;38.60;;;;;;2215072;64;20208;-72
2022/04/26 14:53:27;;;;;;;2.72;2.10;;;27.80;37.60;;;;;;2212479;64;20173;-72
2022/04/26 14:56:12;;;;;;;3.83;2.30;;;28.20;36.90;;;;;;2218277;64;20280;-72
2022/04/26 14:58:53;;;;;;;4.15;2.50;;;27.70;36.50;;;;;;2214765;64;20609;-72
2022/04/26 15:01:46;;;;;;;5.75;2.40;;;26.10;37.90;;;;;;2214083;64;20220;-70
2022/04/26 15:04:26;;;;;;;2.55;2.20;;;24.60;38.60;;;;;;2207103;65;20630;-69
2022/04/26 15:07:04;;;;;;;2.70;2.17;;;24.20;40.10;;;;;;2209875;64;20172;-71
2022/04/26 15:09:45;;;;;;;7.35;2.58;;;25.10;39.90;;;;;;2214861;64;20590;-74
2022/04/26 15:18:13;;;;;;;5.45;2.95;;;26.80;38.20;;;;;;2215040;64;20569;-72
2022/04/26 15:20:53;;;;;;;5.05;2.88;;;26.00;37.80;;;;;;2214764;64;20234;-72
2022/04/26 15:23:30;;;;;;;7.60;2.50;;;24.90;38.20;;;;;;2214927;64;20593;-71
2022/04/26 15:26:08;;;;;;;5.18;2.92;;;24.00;39.60;;;;;;2214873;64;20209;-70
2022/04/26 15:28:45;;;;;;;4.65;2.55;;;23.40;40.60;;;;;;2214975;64;20358;-72
2022/04/26 15:31:23;;;;;;;4.45;2.30;;;23.70;41.20;;;;;;2214996;64;20569;-73
2022/04/26 15:34:03;;;;;;;3.22;2.42;;;23.40;40.40;;;;;;2214795;64;20192;-74
2022/04/26 15:36:44;;;;;;;7.20;2.60;;;22.90;41.00;;;;;;2214778;64;20223;-74
2022/04/26 15:39:21;;;;;;;4.93;2.50;;;22.60;41.50;;;;;;2214711;64;20180;-72
2022/04/26 15:41:59;;;;;;;5.63;2.38;;;22.40;41.90;;;;;;2214968;64;20172;-72
2022/04/26 15:44:41;;;;;;;5.60;2.38;;;22.50;42.00;;;;;;2214428;64;20214;-72
2022/04/26 15:47:21;;;;;;;5.45;2.45;;;22.90;41.60;;;;;;2213673;64;20306;-72
2022/04/26 15:50:01;;;;;;;5.90;2.20;;;23.30;41.10;;;;;;2215003;64;20192;-68
2022/04/26 15:52:40;;;;;;;6.82;2.20;;;24.00;40.40;;;;;;2214514;64;20614;-71
2022/04/26 15:55:22;;;;;;;6.85;2.30;;;23.80;39.90;;;;;;2213404;64;20251;-72
2022/04/26 15:58:02;;;;;;;3.33;2.38;;;23.10;39.90;;;;;;2214426;64;20164;-72
2022/04/26 16:00:40;;;;;;;3.10;1.83;;;23.20;40.10;;;;;;2212606;64;20196;-73
2022/04/26 16:03:18;;;;;;;4.10;2.00;;;23.40;39.90;;;;;;2212705;64;20410;-72
2022/04/26 16:05:59;;;;;;;5.35;2.58;;;23.40;39.90;;;;;;2207276;64;20256;-73
2022/04/26 16:08:43;;;;;;;4.18;2.55;;;23.30;39.90;;;;;;2214000;64;20193;-72
2022/04/26 16:20:34;;;;;;;5.22;2.60;;;21.40;42.30;;;;;;2212925;64;20713;-68
2022/04/26 16:23:12;;;;;;;4.82;2.50;;;20.90;43.20;;;;;;2214746;64;20186;-68
2022/04/26 16:26:02;;;;;;;6.28;2.45;;;20.20;44.30;;;;;;2213670;64;20333;-68
2022/04/26 16:28:39;;;;;;;3.97;2.33;;;19.80;45.40;;;;;;2214701;64;20280;-68
2022/04/26 16:31:27;;;;;;;3.67;2.08;;;19.20;45.90;;;;;;2213953;64;20176;-68
2022/04/26 16:34:08;;;;;;;4.93;2.42;;;18.80;47.50;;;;;;2213972;64;20196;-71
2022/04/26 16:36:51;;;;;;;4.20;2.33;;;18.50;47.40;;;;;;2214542;64;20251;-69
2022/04/26 16:39:30;;;;;;;4.13;2.80;;;18.00;47.50;;;;;;2206812;65;20270;-69
2022/04/26 16:42:09;;;;;;;7.00;2.40;;;18.20;48.10;;;;;;2206963;65;20172;-68
2022/04/26 16:44:49;;;;;;;4.35;2.90;;;18.10;48.60;;;;;;2210369;64;20175;-69
2022/04/26 16:47:26;;;;;;;4.65;2.45;;;19.00;48.30;;;;;;2216283;64;20265;-69
2022/04/26 16:50:04;;;;;;;3.50;2.67;;;19.60;47.00;;;;;;2216456;64;20187;-70
2022/04/26 16:52:46;;;;;;;19.98;15.77;;;20.10;45.70;;;;;;2214158;64;20212;-70
2022/04/26 16:55:29;;;;;;;29.73;22.77;;;19.70;45.60;;;;;;2212592;64;20677;-70
2022/04/26 16:58:10;;;;;;;4.70;2.72;;;19.60;46.10;;;;;;2210161;64;20178;-70
2022/04/26 17:00:49;;;;;;;4.63;2.95;;;18.80;46.40;;;;;;2213514;64;20285;-71
2022/04/26 17:03:27;;;;;;;5.30;3.97;;;18.20;47.50;;;;;;2214298;64;20776;-70
2022/04/26 17:06:07;;;;;;;4.63;3.20;;;18.20;48.80;;;;;;2213022;64;20299;-69
2022/04/26 17:08:45;;;;;;;4.28;2.33;;;18.80;47.90;;;;;;2213529;64;20364;-70
2022/04/26 17:11:42;;;;;;;2.72;2.13;;;18.80;47.40;;;;;;2214561;64;20218;-72
2022/04/26 17:14:21;;;;;;;4.50;2.38;;;18.50;47.70;;;;;;2215374;64;20338;-71
2022/04/26 17:17:01;;;;;;;4.28;2.50;;;18.00;48.90;;;;;;2215593;64;20584;-71
2022/04/26 17:19:41;;;;;;;4.75;2.10;;;18.60;49.00;;;;;;2223593;64;20223;-71
2022/04/26 17:22:21;;;;;;;6.20;2.67;;;19.50;48.20;;;;;;2223927;64;20183;-71
2022/04/26 17:25:16;;;;;;;2.92;2.38;;;20.50;46.80;;;;;;2223662;64;20234;-70
2022/04/26 17:27:54;;;;;;;3.83;2.72;;;21.20;45.70;;;;;;2222727;64;20340;-72
2022/04/26 17:30:30;;;;;;;4.68;2.47;;;21.20;45.20;;;;;;2215446;64;20241;-72
2022/04/26 17:33:09;;;;;;;5.28;2.70;;;20.40;45.50;;;;;;2215156;64;20329;-72
2022/04/26 17:35:50;;;;;;;5.60;2.53;;;19.50;46.40;;;;;;2211820;64;20180;-71
2022/04/26 17:38:30;;;;;;;5.35;2.15;;;18.70;47.70;;;;;;2215470;64;20605;-71
2022/04/26 17:41:10;;;;;;;3.58;2.75;;;17.90;48.80;;;;;;2215523;64;20357;-71
2022/04/26 17:43:47;;;;;;;6.40;2.75;;;17.40;49.90;;;;;;2215417;64;20241;-71
2022/04/26 17:46:25;;;;;;;6.70;2.55;;;16.90;50.80;;;;;;2214761;64;20823;-70
2022/04/26 17:49:05;;;;;;;3.95;2.42;;;16.40;51.40;;;;;;2215461;64;20208;-72
2022/04/26 17:51:42;;;;;;;4.43;3.03;;;15.80;51.80;;;;;;2215703;64;20195;-70
2022/04/26 17:57:16;;;;;;;4.32;2.30;;;15.00;53.40;;;;;;2209918;64;20219;-71
2022/04/26 17:59:55;;;;;;;3.88;2.20;;;14.50;54.20;;;;;;2213419;64;20685;-72
2022/04/26 18:02:32;;;;;;;6.03;2.38;;;14.10;55.30;;;;;;2214575;64;20358;-70
2022/04/26 18:05:10;;;;;;;5.57;2.40;;;13.70;56.20;;;;;;2214541;64;20213;-71
2022/04/26 18:07:47;;;;;;;4.35;2.75;;;13.40;57.30;;;;;;2217307;64;20193;-68
2022/04/26 18:10:24;;;;;;;2.85;2.28;;;13.30;58.20;;;;;;2215609;64;20231;-68
2022/04/26 18:13:02;;;;;;;6.03;2.28;;;13.20;58.90;;;;;;2215236;64;20421;-68